createdAt,value
2023-01-28T00:00:00.992Z,4.9
2023-01-28T00:03:03.028Z,4.9
2023-01-28T00:06:04.918Z,5.2
2023-01-28T00:09:06.899Z,6.2
2023-01-28T00:12:08.879Z,5.6
2023-01-28T00:15:10.831Z,6.5
2023-01-28T00:18:12.782Z,4.6
2023-01-28T00:21:14.774Z,4
2023-01-28T00:24:16.790Z,4.9
2023-01-28T00:27:18.702Z,4
2023-01-28T00:30:20.673Z,6.1
2023-01-28T00:33:22.659Z,5.3
2023-01-28T00:36:24.559Z,3.8
2023-01-28T00:39:26.561Z,4.6
2023-01-28T00:42:28.543Z,4
2023-01-28T00:45:30.517Z,4.9
2023-01-28T00:48:32.467Z,4.7
2023-01-28T00:51:34.415Z,5.2
2023-01-28T00:54:36.399Z,4.8
2023-01-28T00:57:38.326Z,5.1
2023-01-28T01:00:40.291Z,5.5
2023-01-28T01:03:42.253Z,4.7
2023-01-28T01:06:44.213Z,8.3
2023-01-28T01:09:46.233Z,5.1
2023-01-28T01:12:48.190Z,5.6
2023-01-28T01:15:50.240Z,5.4
2023-01-28T01:18:52.115Z,3.9
2023-01-28T01:21:54.098Z,5.1
2023-01-28T01:24:56.113Z,5.6
2023-01-28T01:28:01.145Z,5.8
2023-01-28T01:31:03.104Z,5.4
2023-01-28T01:34:05.050Z,6.6
2023-01-28T01:37:06.984Z,4.6
2023-01-28T01:40:08.939Z,5.5
2023-01-28T01:43:10.922Z,5.5
2023-01-28T01:46:12.920Z,4.7
2023-01-28T01:49:14.847Z,5.9
2023-01-28T01:52:16.845Z,5.1
2023-01-28T01:55:18.783Z,5.7
2023-01-28T01:58:20.741Z,5.6
2023-01-28T02:01:22.760Z,5
2023-01-28T02:04:24.690Z,6.4
2023-01-28T02:07:26.675Z,5.6
2023-01-28T02:10:28.578Z,5
2023-01-28T02:13:30.571Z,4.9
2023-01-28T02:16:32.535Z,3.8
2023-01-28T02:19:34.481Z,4.2
2023-01-28T02:22:36.454Z,5
2023-01-28T02:25:38.437Z,4.6
2023-01-28T02:28:40.383Z,3.8
2023-01-28T02:31:42.467Z,5.5
2023-01-28T02:34:44.298Z,5
2023-01-28T02:37:46.303Z,5.1
2023-01-28T02:40:48.293Z,7.1
2023-01-28T02:43:50.210Z,7.4
2023-01-28T02:46:52.166Z,5.1
2023-01-28T02:49:54.139Z,5.5
2023-01-28T02:52:56.103Z,6.6
2023-01-28T02:55:58.061Z,8.2
2023-01-28T02:59:00.124Z,5
2023-01-28T03:02:01.991Z,6.1
2023-01-28T03:05:03.939Z,5.1
2023-01-28T03:08:05.918Z,6.9
2023-01-28T03:11:07.855Z,6.8
2023-01-28T03:14:09.895Z,4.9
2023-01-28T03:17:11.777Z,5.2
2023-01-28T03:20:13.773Z,5.6
2023-01-28T03:23:15.704Z,5.6
2023-01-28T03:26:17.659Z,7.9
2023-01-28T03:29:19.634Z,6.7
2023-01-28T03:32:21.653Z,6
2023-01-28T03:35:23.578Z,6.7
2023-01-28T03:38:25.535Z,8.4
2023-01-28T03:41:27.501Z,7.6
2023-01-28T03:44:29.509Z,7.7
2023-01-28T03:47:31.494Z,8
2023-01-28T03:50:33.536Z,7.7
2023-01-28T03:53:35.465Z,7.1
2023-01-28T03:56:37.401Z,5.8
2023-01-28T03:59:39.340Z,6
2023-01-28T04:02:41.370Z,8.5
2023-01-28T04:05:43.268Z,7.6
2023-01-28T04:08:45.233Z,6
2023-01-28T04:11:47.224Z,6.2
2023-01-28T04:14:49.182Z,5.1
2023-01-28T04:17:51.176Z,5.3
2023-01-28T04:20:53.095Z,4.8
2023-01-28T04:23:55.099Z,5.9
2023-01-28T04:26:57.022Z,6.4
2023-01-28T04:29:58.995Z,6.2
2023-01-28T04:33:00.968Z,7.3
2023-01-28T04:36:02.949Z,5.4
2023-01-28T04:39:04.903Z,5.5
2023-01-28T04:42:06.863Z,5.9
2023-01-28T04:45:08.831Z,7
2023-01-28T04:48:10.835Z,6.7
2023-01-28T04:51:12.774Z,4.4
2023-01-28T04:54:14.737Z,4.9
2023-01-28T04:57:16.755Z,5.8
2023-01-28T05:00:18.696Z,4.4
2023-01-28T05:03:20.649Z,5.7
2023-01-28T05:06:22.581Z,5.8
2023-01-28T05:09:24.528Z,6.9
2023-01-28T05:12:26.508Z,4.2
2023-01-28T05:15:28.496Z,7.7
2023-01-28T05:18:30.452Z,4.7
2023-01-28T05:21:32.400Z,6.3
2023-01-28T05:24:34.367Z,4.6
2023-01-28T05:27:36.343Z,5.1
2023-01-28T05:30:38.312Z,4.6
2023-01-28T05:33:40.255Z,4.3
2023-01-28T05:36:42.219Z,6
2023-01-28T05:39:44.219Z,4.7
2023-01-28T05:42:46.155Z,3.6
2023-01-28T05:48:50.145Z,5
2023-01-28T05:51:52.108Z,5.7
2023-01-28T05:54:54.046Z,5.1
2023-01-28T05:57:56.037Z,4.6
2023-01-28T06:01:00.529Z,4.5
2023-01-28T06:04:00.129Z,5.4
2023-01-28T06:07:02.070Z,4
2023-01-28T06:10:03.990Z,6.5
2023-01-28T06:13:06.187Z,4.5
2023-01-28T06:16:08.027Z,6.4
2023-01-28T06:19:09.891Z,4.6
2023-01-28T06:22:11.884Z,4.2
2023-01-28T06:25:13.833Z,5.7
2023-01-28T06:28:15.811Z,3.7
2023-01-28T06:31:17.774Z,4
2023-01-28T06:34:19.777Z,4.9
2023-01-28T06:37:21.758Z,4.7
2023-01-28T06:40:23.704Z,5.3
2023-01-28T06:43:25.640Z,4.7
2023-01-28T06:46:27.721Z,4.8
2023-01-28T06:49:29.597Z,4.1
2023-01-28T06:52:31.554Z,4.3
2023-01-28T06:55:33.525Z,5.9
2023-01-28T06:58:35.483Z,6.6
2023-01-28T07:01:37.516Z,4.5
2023-01-28T07:04:39.472Z,4.2
2023-01-28T07:07:42.079Z,5.2
2023-01-28T07:10:43.388Z,6.2
2023-01-28T07:13:45.352Z,4.8
2023-01-28T07:16:47.428Z,5.1
2023-01-28T07:19:49.272Z,4.3
2023-01-28T07:22:51.285Z,5.8
2023-01-28T07:25:53.212Z,5
2023-01-28T07:28:55.210Z,5.4
2023-01-28T07:31:57.214Z,3.7
2023-01-28T07:34:59.152Z,6.7
2023-01-28T07:38:01.121Z,4.6
2023-01-28T07:41:03.071Z,4.3
2023-01-28T07:44:05.039Z,5.8
2023-01-28T07:47:07.069Z,4
2023-01-28T07:50:09.064Z,3.6
2023-01-28T07:53:10.991Z,4.1
2023-01-28T07:56:12.959Z,5.5
2023-01-28T07:59:14.929Z,4.1
2023-01-28T08:02:16.898Z,6.9
2023-01-28T08:05:19.006Z,4.9
2023-01-28T08:08:20.858Z,3.9
2023-01-28T08:11:22.828Z,5.3
2023-01-28T08:14:24.780Z,3.8
2023-01-28T08:17:26.723Z,4.7
2023-01-28T08:20:28.741Z,2.7
2023-01-28T08:23:30.668Z,4.7
2023-01-28T08:26:32.646Z,4.7
2023-01-28T08:29:34.600Z,3.9
2023-01-28T08:32:36.699Z,4.1
2023-01-28T08:35:38.531Z,4.1
2023-01-28T08:38:40.479Z,4.2
2023-01-28T08:41:42.458Z,3.9
2023-01-28T08:44:44.417Z,2.7
2023-01-28T08:47:46.358Z,5.2
2023-01-28T08:50:48.321Z,10
2023-01-28T08:53:50.296Z,3.9
2023-01-28T08:56:52.233Z,3.8
2023-01-28T08:59:54.179Z,3.4
2023-01-28T09:02:56.161Z,3.2
2023-01-28T09:05:58.336Z,3.7
2023-01-28T09:09:00.299Z,5
2023-01-28T09:12:02.496Z,4.2
2023-01-28T09:15:04.210Z,3.3
2023-01-28T09:18:06.183Z,5.1
2023-01-28T09:21:08.143Z,3.5
2023-01-28T09:24:10.158Z,4.4
2023-01-28T09:27:12.057Z,4.7
2023-01-28T09:30:14.374Z,4.1
2023-01-28T09:33:15.953Z,4.9
2023-01-28T09:36:17.915Z,4.4
2023-01-28T09:39:19.871Z,3.5
2023-01-28T09:42:21.867Z,3.7
2023-01-28T09:45:23.798Z,3.3
2023-01-28T09:48:25.763Z,3.5
2023-01-28T09:51:27.686Z,4.2
2023-01-28T09:54:29.645Z,4.1
2023-01-28T09:57:31.602Z,4.3
2023-01-28T10:00:33.596Z,5.7
2023-01-28T10:03:35.570Z,5.4
2023-01-28T10:06:37.483Z,4.2
2023-01-28T10:09:39.434Z,4.4
2023-01-28T10:12:41.390Z,2.9
2023-01-28T10:15:43.351Z,4.2
2023-01-28T10:18:45.309Z,5
2023-01-28T10:21:47.304Z,4
2023-01-28T10:24:49.253Z,4.6
2023-01-28T10:27:51.226Z,5.8
2023-01-28T10:30:53.252Z,5.2
2023-01-28T10:33:55.155Z,5.3
2023-01-28T10:36:57.147Z,8.4
2023-01-28T10:39:59.084Z,3.4
2023-01-28T10:43:01.071Z,4
2023-01-28T10:46:03.086Z,5.3
2023-01-28T10:49:04.982Z,4.2
2023-01-28T10:52:06.970Z,6.3
2023-01-28T10:55:08.912Z,5
2023-01-28T10:58:10.879Z,3.8
2023-01-28T11:01:12.923Z,3.6
2023-01-28T11:04:14.803Z,5.6
2023-01-28T11:07:16.768Z,3.3
2023-01-28T11:10:18.761Z,4.6
2023-01-28T11:13:20.699Z,3.8
2023-01-28T11:16:22.688Z,7.9
2023-01-28T11:22:26.604Z,3.5
2023-01-28T11:25:28.536Z,4.2
2023-01-28T11:28:30.500Z,4.9
2023-01-28T11:31:32.497Z,3.7
2023-01-28T11:34:34.459Z,4.2
2023-01-28T11:37:36.401Z,4.9
2023-01-28T11:40:38.360Z,4.5
2023-01-28T11:43:40.377Z,4.6
2023-01-28T11:46:42.320Z,4.2
2023-01-28T11:49:44.286Z,3.2
2023-01-28T11:53:04.733Z,4.1
2023-01-28T11:55:48.211Z,4.1
2023-01-28T11:58:50.171Z,2.5
2023-01-28T12:01:52.138Z,3.9
2023-01-28T12:04:54.111Z,4.3
2023-01-28T12:07:56.094Z,3.7
2023-01-28T12:10:58.248Z,4.9
2023-01-28T12:14:00.192Z,3.8
2023-01-28T12:17:02.132Z,3.7
2023-01-28T12:20:04.124Z,2.6
2023-01-28T12:23:06.092Z,5
2023-01-28T12:26:08.053Z,3.9
2023-01-28T12:29:09.970Z,3
2023-01-28T12:32:11.992Z,3.9
2023-01-28T12:35:13.908Z,5.4
2023-01-28T12:38:15.888Z,4.8
2023-01-28T12:41:17.899Z,5.3
2023-01-28T12:44:19.885Z,4.2
2023-01-28T12:47:21.820Z,4.2
2023-01-28T12:50:23.794Z,5.1
2023-01-28T12:53:25.784Z,4.3
2023-01-28T12:56:27.754Z,4.2
2023-01-28T12:59:29.702Z,5.4
2023-01-28T13:02:31.655Z,4.7
2023-01-28T13:05:33.637Z,5
2023-01-28T13:08:35.590Z,3.3
2023-01-28T13:11:37.539Z,4.9
2023-01-28T13:14:39.506Z,6.1
2023-01-28T13:17:41.465Z,7.8
2023-01-28T13:20:43.443Z,7.8
2023-01-28T13:23:45.458Z,3.5
2023-01-28T13:26:47.418Z,3.1
2023-01-28T13:29:49.410Z,2.6
2023-01-28T13:32:51.467Z,6.1
2023-01-28T13:35:53.335Z,4.5
2023-01-28T13:38:55.305Z,4.3
2023-01-28T13:41:57.254Z,2.6
2023-01-28T13:44:59.235Z,1.9
2023-01-28T13:48:01.214Z,3.9
2023-01-28T13:51:03.173Z,3.5
2023-01-28T13:54:05.147Z,2.1
2023-01-28T13:57:07.208Z,3.3
2023-01-28T14:00:09.164Z,2.3
2023-01-28T14:03:11.061Z,2.9
2023-01-28T14:06:13.177Z,2.1
2023-01-28T14:09:14.983Z,2.7
2023-01-28T14:12:16.947Z,4.8
2023-01-28T14:15:18.915Z,3.5
2023-01-28T14:18:20.897Z,4.5
2023-01-28T14:21:22.859Z,6.2
2023-01-28T14:24:24.966Z,5.1
2023-01-28T14:27:26.816Z,4.5
2023-01-28T14:30:28.766Z,5.2
2023-01-28T14:33:30.721Z,3.8
2023-01-28T14:36:32.687Z,3.1
2023-01-28T14:39:34.653Z,2.1
2023-01-28T14:42:36.628Z,2.7
2023-01-28T14:45:38.607Z,5.2
2023-01-28T14:48:40.565Z,3.8
2023-01-28T14:51:42.522Z,2.6
2023-01-28T14:54:44.502Z,2.8
2023-01-28T14:57:46.454Z,3
2023-01-28T15:00:48.478Z,3
2023-01-28T15:03:50.426Z,2.5
2023-01-28T15:06:52.407Z,2.4
2023-01-28T15:09:54.366Z,2.2
2023-01-28T15:12:56.338Z,4.7
2023-01-28T15:15:58.299Z,3.6
2023-01-28T15:19:00.282Z,3.6
2023-01-28T15:22:02.305Z,3.5
2023-01-28T15:25:04.269Z,4.4
2023-01-28T15:28:06.238Z,2.6
2023-01-28T15:31:08.326Z,3.9
2023-01-28T15:34:10.153Z,2.8
2023-01-28T15:37:12.133Z,3.8
2023-01-28T15:40:14.448Z,2.9
2023-01-28T15:43:16.068Z,5.3
2023-01-28T15:46:18.013Z,2.9
2023-01-28T15:49:19.984Z,4
2023-01-28T15:52:21.957Z,5.1
2023-01-28T15:55:23.958Z,5.6
2023-01-28T15:58:25.887Z,3.2
2023-01-28T16:01:27.849Z,4.6
2023-01-28T16:04:29.840Z,3.1
2023-01-28T16:07:31.778Z,6
2023-01-28T16:10:33.794Z,5.7
2023-01-28T16:13:35.697Z,5.7
2023-01-28T16:16:37.841Z,5.6
2023-01-28T16:19:39.627Z,4.8
2023-01-28T16:22:41.607Z,5.4
2023-01-28T16:25:43.587Z,3.6
2023-01-28T16:28:45.533Z,5.6
2023-01-28T16:31:47.596Z,4.3
2023-01-28T16:34:49.497Z,3.4
2023-01-28T16:37:51.488Z,4.9
2023-01-28T16:40:53.440Z,6
2023-01-28T16:43:55.394Z,4.6
2023-01-28T16:46:57.388Z,3.6
2023-01-28T16:49:59.338Z,7.5
2023-01-28T16:53:01.252Z,6.5
2023-01-28T16:56:03.259Z,7.3
2023-01-28T16:59:05.192Z,5.9
2023-01-28T17:02:07.366Z,6.4
2023-01-28T17:05:09.111Z,6.4
2023-01-28T17:08:11.079Z,4.9
2023-01-28T17:11:13.044Z,6
2023-01-28T17:14:15.030Z,7.2
2023-01-28T17:17:16.980Z,7.1
2023-01-28T17:20:18.944Z,7.9
2023-01-28T17:23:20.907Z,7.9
2023-01-28T17:26:22.873Z,7.3
2023-01-28T17:29:25.025Z,7.8
2023-01-28T17:32:26.855Z,7.3
2023-01-28T17:35:28.814Z,8.5
2023-01-28T17:38:30.805Z,10
2023-01-28T17:41:32.749Z,8.9
2023-01-28T17:44:34.695Z,7.5
2023-01-28T17:47:36.667Z,5.9
2023-01-28T17:50:38.700Z,8.3
2023-01-28T17:53:40.647Z,7.9
2023-01-28T17:56:42.643Z,6.4
2023-01-28T17:59:44.712Z,11.9
2023-01-28T18:02:46.626Z,7.4
2023-01-28T18:05:48.523Z,9.2
2023-01-28T18:08:50.499Z,6.6
2023-01-28T18:11:52.487Z,7.3
2023-01-28T18:14:54.465Z,9.4
2023-01-28T18:17:56.382Z,8.9
2023-01-28T18:20:58.406Z,8.4
2023-01-28T18:24:00.386Z,7.1
2023-01-28T18:27:02.366Z,11
2023-01-28T18:30:04.261Z,7.1
2023-01-28T18:33:06.236Z,7.2
2023-01-28T18:36:08.236Z,6.9
2023-01-28T18:39:10.151Z,6.1
2023-01-28T18:42:12.117Z,7.3
2023-01-28T18:45:14.445Z,7.6
2023-01-28T18:48:16.135Z,6.8
2023-01-28T18:51:29.186Z,8.5
2023-01-28T18:54:19.990Z,6.4
2023-01-28T18:57:21.955Z,6.3
2023-01-28T19:00:23.921Z,7.7
2023-01-28T19:03:25.956Z,6.9
2023-01-28T19:06:27.944Z,7.6
2023-01-28T19:09:29.860Z,7.1
2023-01-28T19:12:31.834Z,8.3
2023-01-28T19:15:33.831Z,7.1
2023-01-28T19:18:35.786Z,8.3
2023-01-28T19:21:37.782Z,9.6
2023-01-28T19:24:39.727Z,8.1
2023-01-28T19:27:41.687Z,7.3
2023-01-28T19:30:43.709Z,9.9
2023-01-28T19:33:45.603Z,7.9
2023-01-28T19:36:47.588Z,9.7
2023-01-28T19:39:49.560Z,7.8
2023-01-28T19:42:51.562Z,7.1
2023-01-28T19:45:53.485Z,7.9
2023-01-28T19:48:55.493Z,7.2
2023-01-28T19:51:57.431Z,10.3
2023-01-28T19:54:59.408Z,7.1
2023-01-28T19:58:01.471Z,10.1
2023-01-28T20:01:03.444Z,8.6
2023-01-28T20:04:05.369Z,8.2
2023-01-28T20:07:07.341Z,10.8
2023-01-28T20:10:11.322Z,8.9
2023-01-28T20:13:11.353Z,7.9
2023-01-28T20:16:13.214Z,8.8
2023-01-28T20:19:15.173Z,7.5
2023-01-28T20:22:17.140Z,11
2023-01-28T20:25:19.266Z,8.4
2023-01-28T20:28:21.087Z,9.6
2023-01-28T20:31:23.151Z,9.2
2023-01-28T20:34:25.170Z,9.4
2023-01-28T20:37:26.979Z,8.2
2023-01-28T20:40:28.968Z,8
2023-01-28T20:43:30.933Z,7.5
2023-01-28T20:46:32.865Z,7.1
2023-01-28T20:49:34.805Z,8.4
2023-01-28T20:52:36.777Z,6.4
2023-01-28T20:55:38.733Z,7
2023-01-28T20:58:40.676Z,7.3
2023-01-28T21:01:42.695Z,7.7
2023-01-28T21:04:44.593Z,7.9
2023-01-28T21:07:46.633Z,6.6
2023-01-28T21:10:48.533Z,6.9
2023-01-28T21:13:50.552Z,7.1
2023-01-28T21:16:52.487Z,8.6
2023-01-28T21:19:54.408Z,6.5
2023-01-28T21:22:56.421Z,5.6
2023-01-28T21:25:58.387Z,7.3
2023-01-28T21:29:00.343Z,5.5
2023-01-28T21:32:02.342Z,6.4
2023-01-28T21:35:04.268Z,8.3
2023-01-28T21:38:06.186Z,8.8
2023-01-28T21:41:08.145Z,8.8
2023-01-28T21:44:10.131Z,6.6
2023-01-28T21:47:12.155Z,6.7
2023-01-28T21:50:14.378Z,7.1
2023-01-28T21:53:16.061Z,8.5
2023-01-28T21:56:18.031Z,8.7
2023-01-28T21:59:19.989Z,8.9
2023-01-28T22:02:23.881Z,7.8
2023-01-28T22:05:23.925Z,9
2023-01-28T22:08:25.893Z,10.6
2023-01-28T22:11:27.880Z,7.3
2023-01-28T22:14:29.834Z,7.6
2023-01-28T22:17:31.817Z,11
2023-01-28T22:20:33.741Z,6.9
2023-01-28T22:23:35.709Z,8.7
2023-01-28T22:26:37.665Z,7.9
2023-01-28T22:29:39.632Z,9.1
2023-01-28T22:32:41.614Z,7.7
2023-01-28T22:35:43.574Z,8.1
2023-01-28T22:38:45.540Z,7.9
2023-01-28T22:41:47.511Z,7.3
2023-01-28T22:44:49.486Z,6.2
2023-01-28T22:47:51.458Z,11.5
2023-01-28T22:50:53.403Z,10
2023-01-28T22:53:55.353Z,6.5
2023-01-28T22:56:57.335Z,8.1
2023-01-28T23:00:00.559Z,6.9
2023-01-28T23:03:01.350Z,6.8
2023-01-28T23:06:03.261Z,6.5
2023-01-28T23:09:05.234Z,7.2
2023-01-28T23:12:07.174Z,6.5
2023-01-28T23:15:09.117Z,8.3
2023-01-28T23:18:11.340Z,9.8
2023-01-28T23:21:13.054Z,6.6
2023-01-28T23:24:15.045Z,7.3
2023-01-28T23:27:17.017Z,6.1
2023-01-28T23:30:19.289Z,5.8
2023-01-28T23:33:20.925Z,6.5
2023-01-28T23:36:22.909Z,5.6
2023-01-28T23:39:24.863Z,7.4
2023-01-28T23:42:26.881Z,6.2
2023-01-28T23:45:28.848Z,6.8
2023-01-28T23:48:30.808Z,6.9
2023-01-28T23:51:32.751Z,7.3
2023-01-28T23:54:34.725Z,7.5
2023-01-28T23:57:36.692Z,5.1
